createdAt,value
2023-04-18T00:01:24.930Z,100.00
2023-04-18T00:03:52.023Z,100.00
2023-04-18T00:06:19.408Z,100.00
2023-04-18T00:08:46.576Z,100.00
2023-04-18T00:11:13.156Z,100.00
2023-04-18T00:13:40.789Z,100.00
2023-04-18T00:16:13.285Z,100.00
2023-04-18T00:18:40.211Z,100.00
2023-04-18T00:21:08.591Z,100.00
2023-04-18T00:23:35.912Z,100.00
2023-04-18T00:26:02.775Z,100.00
2023-04-18T00:28:29.547Z,100.00
2023-04-18T00:30:56.379Z,100.00
2023-04-18T00:33:23.091Z,100.00
2023-04-18T00:35:49.700Z,100.00
2023-04-18T00:38:16.380Z,100.00
2023-04-18T00:40:43.224Z,100.00
2023-04-18T00:43:09.888Z,100.00
2023-04-18T00:45:37.224Z,100.00
2023-04-18T00:48:04.271Z,100.00
2023-04-18T00:50:31.649Z,100.00
2023-04-18T00:52:58.562Z,100.00
2023-04-18T00:55:25.544Z,100.00
2023-04-18T00:57:52.311Z,100.00
2023-04-18T01:00:19.126Z,100.00
2023-04-18T01:02:47.177Z,100.00
2023-04-18T01:05:14.051Z,100.00
2023-04-18T01:07:41.819Z,100.00
2023-04-18T01:10:10.284Z,100.00
2023-04-18T01:12:37.742Z,100.00
2023-04-18T01:15:05.756Z,100.00
2023-04-18T01:17:34.686Z,100.00
2023-04-18T01:20:06.405Z,100.00
2023-04-18T01:22:33.582Z,100.00
2023-04-18T01:25:00.285Z,100.00
2023-04-18T01:27:26.944Z,100.00
2023-04-18T01:29:53.707Z,100.00
2023-04-18T01:32:20.692Z,100.00
2023-04-18T01:34:47.681Z,100.00
2023-04-18T01:37:14.500Z,100.00
2023-04-18T01:39:41.116Z,100.00
2023-04-18T01:42:07.806Z,100.00
2023-04-18T01:44:34.472Z,100.00
2023-04-18T01:47:01.204Z,100.00
2023-04-18T01:49:27.924Z,100.00
2023-04-18T01:51:54.601Z,100.00
2023-04-18T01:54:21.257Z,100.00
2023-04-18T01:56:47.914Z,100.00
2023-04-18T01:59:14.531Z,100.00
2023-04-18T02:01:41.143Z,100.00
2023-04-18T02:04:07.852Z,100.00
2023-04-18T02:06:34.632Z,100.00
2023-04-18T02:09:01.388Z,100.00
2023-04-18T02:11:28.003Z,100.00
2023-04-18T02:13:54.724Z,100.00
2023-04-18T02:16:21.620Z,100.00
2023-04-18T02:18:49.709Z,100.00
2023-04-18T02:21:16.319Z,100.00
2023-04-18T02:23:42.923Z,100.00
2023-04-18T02:26:09.634Z,100.00
2023-04-18T02:28:39.043Z,100.00
2023-04-18T02:31:06.302Z,100.00
2023-04-18T02:33:32.919Z,100.00
2023-04-18T02:35:59.611Z,100.00
2023-04-18T02:38:26.204Z,100.00
2023-04-18T02:40:52.837Z,100.00
2023-04-18T02:43:19.426Z,100.00
2023-04-18T02:45:46.019Z,100.00
2023-04-18T02:48:12.729Z,100.00
2023-04-18T02:50:39.376Z,100.00
2023-04-18T02:53:06.046Z,100.00
2023-04-18T02:55:32.701Z,100.00
2023-04-18T02:57:59.273Z,100.00
2023-04-18T03:00:25.993Z,100.00
2023-04-18T03:02:53.370Z,100.00
2023-04-18T03:05:20.344Z,100.00
2023-04-18T03:07:46.985Z,100.00
2023-04-18T03:10:13.711Z,100.00
2023-04-18T03:12:40.387Z,100.00
2023-04-18T03:15:07.679Z,100.00
2023-04-18T03:17:34.663Z,100.00
2023-04-18T03:20:01.272Z,100.00
2023-04-18T03:22:27.905Z,100.00
2023-04-18T03:24:54.641Z,100.00
2023-04-18T03:27:21.230Z,100.00
2023-04-18T03:29:47.838Z,100.00
2023-04-18T03:32:14.425Z,100.00
2023-04-18T03:34:41.056Z,100.00
2023-04-18T03:37:07.702Z,100.00
2023-04-18T03:39:34.300Z,100.00
2023-04-18T03:42:02.113Z,100.00
2023-04-18T03:44:28.744Z,100.00
2023-04-18T03:46:56.065Z,100.00
2023-04-18T03:49:22.756Z,100.00
2023-04-18T03:51:49.341Z,100.00
2023-04-18T03:54:16.757Z,100.00
2023-04-18T03:56:44.242Z,100.00
2023-04-18T03:59:11.680Z,100.00
2023-04-18T04:01:38.397Z,100.00
2023-04-18T04:04:05.577Z,100.00
2023-04-18T04:06:32.551Z,100.00
2023-04-18T04:08:59.186Z,100.00
2023-04-18T04:11:26.059Z,100.00
2023-04-18T04:13:52.993Z,100.00
2023-04-18T04:16:19.737Z,100.00
2023-04-18T04:18:46.404Z,100.00
2023-04-18T04:21:13.070Z,100.00
2023-04-18T04:23:42.242Z,100.00
2023-04-18T04:26:09.187Z,100.00
2023-04-18T04:28:36.183Z,100.00
2023-04-18T04:31:03.464Z,100.00
2023-04-18T04:33:33.324Z,100.00
2023-04-18T04:36:01.344Z,100.00
2023-04-18T04:38:31.017Z,100.00
2023-04-18T04:40:58.461Z,100.00
2023-04-18T04:43:26.119Z,100.00
2023-04-18T04:45:53.865Z,100.00
2023-04-18T04:48:22.124Z,100.00
2023-04-18T04:50:53.691Z,100.00
2023-04-18T04:53:20.440Z,100.00
2023-04-18T04:55:47.267Z,100.00
2023-04-18T04:58:13.853Z,100.00
2023-04-18T05:00:40.492Z,100.00
2023-04-18T05:03:08.373Z,100.00
2023-04-18T05:05:35.297Z,100.00
2023-04-18T05:08:02.212Z,100.00
2023-04-18T05:10:28.985Z,100.00
2023-04-18T05:12:55.664Z,100.00
2023-04-18T05:15:23.197Z,100.00
2023-04-18T05:17:49.852Z,100.00
2023-04-18T05:20:16.557Z,100.00
2023-04-18T05:22:43.176Z,100.00
2023-04-18T05:25:10.308Z,100.00
2023-04-18T05:27:36.936Z,100.00
2023-04-18T05:30:03.717Z,100.00
2023-04-18T05:32:30.347Z,100.00
2023-04-18T05:34:56.989Z,100.00
2023-04-18T05:37:23.749Z,100.00
2023-04-18T05:39:50.508Z,100.00
2023-04-18T05:42:17.112Z,100.00
2023-04-18T05:44:43.730Z,100.00
2023-04-18T05:47:10.373Z,100.00
2023-04-18T05:49:37.006Z,100.00
2023-04-18T05:52:03.800Z,100.00
2023-04-18T05:54:30.399Z,100.00
2023-04-18T05:56:57.308Z,100.00
2023-04-18T05:59:24.178Z,100.00
2023-04-18T06:01:51.521Z,100.00
2023-04-18T06:04:20.298Z,100.00
2023-04-18T06:06:47.420Z,100.00
2023-04-18T06:09:14.041Z,100.00
2023-04-18T06:11:40.671Z,100.00
2023-04-18T06:14:07.900Z,100.00
2023-04-18T06:16:37.269Z,100.00
2023-04-18T06:19:05.271Z,100.00
2023-04-18T06:21:32.181Z,100.00
2023-04-18T06:23:59.099Z,100.00
2023-04-18T06:26:25.729Z,100.00
2023-04-18T06:28:52.517Z,100.00
2023-04-18T06:31:19.237Z,100.00
2023-04-18T06:33:45.837Z,100.00
2023-04-18T06:36:12.575Z,100.00
2023-04-18T06:38:39.191Z,100.00
2023-04-18T06:41:05.881Z,100.00
2023-04-18T06:43:32.479Z,100.00
2023-04-18T06:45:59.489Z,100.00
2023-04-18T06:48:26.154Z,100.00
2023-04-18T06:50:52.829Z,100.00
2023-04-18T06:53:19.665Z,100.00
2023-04-18T06:55:46.354Z,100.00
2023-04-18T06:58:16.059Z,100.00
2023-04-18T07:00:43.237Z,100.00
2023-04-18T07:03:13.647Z,100.00
2023-04-18T07:05:40.769Z,100.00
2023-04-18T07:08:08.217Z,100.00
2023-04-18T07:10:34.892Z,100.00
2023-04-18T07:13:01.723Z,100.00
2023-04-18T07:15:28.627Z,100.00
2023-04-18T07:17:55.289Z,100.00
2023-04-18T07:20:21.979Z,100.00
2023-04-18T07:22:48.830Z,100.00
2023-04-18T07:25:15.558Z,100.00
2023-04-18T07:27:42.461Z,100.00
2023-04-18T07:30:09.767Z,100.00
2023-04-18T07:32:36.410Z,100.00
2023-04-18T07:35:04.456Z,100.00
2023-04-18T07:37:31.559Z,100.00
2023-04-18T07:39:58.895Z,100.00
2023-04-18T07:42:25.570Z,100.00
2023-04-18T07:44:57.916Z,100.00
2023-04-18T07:47:26.907Z,100.00
2023-04-18T07:49:55.143Z,100.00
2023-04-18T07:52:21.889Z,100.00
2023-04-18T07:54:48.512Z,100.00
2023-04-18T07:57:15.395Z,100.00
2023-04-18T07:59:42.144Z,100.00
2023-04-18T08:02:08.879Z,100.00
2023-04-18T08:04:35.783Z,100.00
2023-04-18T08:07:02.543Z,100.00
2023-04-18T08:09:29.180Z,100.00
2023-04-18T08:11:56.787Z,100.00
2023-04-18T08:14:23.832Z,100.00
2023-04-18T08:16:50.529Z,100.00
2023-04-18T08:19:17.217Z,100.00
2023-04-18T08:21:43.798Z,100.00
2023-04-18T08:24:10.440Z,100.00
2023-04-18T08:26:37.198Z,100.00
2023-04-18T08:29:03.912Z,100.00
2023-04-18T08:31:32.202Z,100.00
2023-04-18T08:33:58.883Z,100.00
2023-04-18T08:36:26.008Z,100.00
2023-04-18T08:38:52.698Z,100.00
2023-04-18T08:41:23.373Z,100.00
2023-04-18T08:43:50.030Z,100.00
2023-04-18T08:46:17.271Z,100.00
2023-04-18T08:48:44.763Z,100.00
2023-04-18T08:51:11.464Z,100.00
2023-04-18T08:53:39.566Z,100.00
2023-04-18T08:56:10.455Z,100.00
2023-04-18T08:58:37.241Z,100.00
2023-04-18T09:01:04.239Z,100.00
2023-04-18T09:03:42.137Z,100.00
2023-04-18T09:06:10.413Z,100.00
2023-04-18T09:08:37.084Z,100.00
2023-04-18T09:11:26.247Z,100.00
2023-04-18T09:13:53.441Z,100.00
2023-04-18T09:16:22.483Z,100.00
2023-04-18T09:19:13.256Z,100.00
2023-04-18T09:21:42.541Z,100.00
2023-04-18T09:24:27.221Z,100.00
2023-04-18T09:26:55.994Z,100.00
2023-04-18T09:29:47.082Z,100.00
2023-04-18T09:32:25.269Z,100.00
2023-04-18T09:34:54.460Z,100.00
2023-04-18T09:37:21.921Z,100.00
2023-04-18T09:39:49.925Z,100.00
2023-04-18T09:42:17.541Z,100.00
2023-04-18T09:45:07.072Z,100.00
2023-04-18T09:47:35.383Z,100.00
2023-04-18T09:50:07.768Z,100.00
2023-04-18T09:52:36.929Z,100.00
2023-04-18T09:55:11.313Z,100.00
2023-04-18T09:57:41.578Z,100.00
2023-04-18T10:00:13.877Z,100.00
2023-04-18T10:02:48.664Z,100.00
2023-04-18T10:05:18.814Z,100.00
2023-04-18T10:07:48.796Z,100.00
2023-04-18T10:10:15.949Z,100.00
2023-04-18T10:12:43.364Z,100.00
2023-04-18T10:15:11.345Z,100.00
2023-04-18T10:18:02.832Z,100.00
2023-04-18T10:20:33.060Z,100.00
2023-04-18T10:23:00.606Z,100.00
2023-04-18T10:25:39.620Z,100.00
2023-04-18T10:28:08.126Z,100.00
2023-04-18T10:30:40.564Z,100.00
2023-04-18T10:33:30.477Z,100.00
2023-04-18T10:36:08.628Z,100.00
2023-04-18T10:38:38.845Z,100.00
2023-04-18T10:41:29.146Z,100.00
2023-04-18T10:44:11.478Z,100.00
2023-04-18T10:46:43.792Z,100.00
2023-04-18T10:49:39.755Z,100.00
2023-04-18T10:52:06.877Z,100.00
2023-04-18T10:54:51.053Z,100.00
2023-04-18T10:57:17.819Z,100.00
2023-04-18T10:59:49.479Z,100.00
2023-04-18T11:02:29.626Z,100.00
2023-04-18T11:04:58.667Z,100.00
2023-04-18T11:07:39.105Z,100.00
2023-04-18T11:10:07.172Z,100.00
2023-04-18T11:12:36.310Z,100.00
2023-04-18T11:15:09.605Z,100.00
2023-04-18T11:17:39.728Z,100.00
2023-04-18T11:20:09.289Z,100.00
2023-04-18T11:22:50.862Z,100.00
2023-04-18T11:25:19.503Z,100.00
2023-04-18T11:27:48.445Z,100.00
2023-04-18T11:30:15.888Z,100.00
2023-04-18T11:32:42.567Z,100.00
2023-04-18T11:35:11.271Z,100.00
2023-04-18T11:37:39.325Z,100.00
2023-04-18T11:40:08.586Z,100.00
2023-04-18T11:42:36.182Z,100.00
2023-04-18T11:45:03.635Z,100.00
2023-04-18T11:47:34.531Z,100.00
2023-04-18T11:50:03.899Z,100.00
2023-04-18T11:52:32.195Z,100.00
2023-04-18T11:55:21.471Z,100.00
2023-04-18T11:57:59.030Z,96.95
2023-04-18T12:00:33.771Z,91.17
2023-04-18T12:03:02.310Z,77.01
2023-04-18T12:05:37.096Z,66.47
2023-04-18T12:08:08.998Z,67.70
2023-04-18T12:10:36.167Z,56.95
2023-04-18T12:13:06.769Z,57.66
2023-04-18T12:15:34.888Z,58.74
2023-04-18T12:18:03.384Z,60.02
2023-04-18T12:20:40.309Z,57.21
2023-04-18T12:23:07.855Z,58.45
2023-04-18T12:25:35.059Z,59.31
2023-04-18T12:28:04.285Z,57.03
2023-04-18T12:30:36.008Z,57.36
2023-04-18T12:33:04.734Z,57.20
2023-04-18T12:35:32.433Z,55.32
2023-04-18T12:38:00.817Z,54.69
2023-04-18T12:40:28.882Z,52.40
2023-04-18T12:42:56.226Z,52.00
2023-04-18T12:45:24.382Z,52.30
2023-04-18T12:47:52.435Z,53.22
2023-04-18T12:50:24.483Z,49.89
2023-04-18T12:52:55.889Z,49.68
2023-04-18T12:55:23.014Z,50.81
2023-04-18T12:57:52.226Z,51.46
2023-04-18T13:00:18.847Z,49.40
2023-04-18T13:02:46.142Z,49.27
2023-04-18T13:05:15.359Z,49.42
2023-04-18T13:07:42.736Z,49.85
2023-04-18T13:10:11.893Z,49.50
2023-04-18T13:12:39.600Z,50.59
2023-04-18T13:15:07.595Z,49.30
2023-04-18T13:17:36.766Z,49.62
2023-04-18T13:20:10.530Z,49.42
2023-04-18T13:22:37.640Z,49.70
2023-04-18T13:25:04.510Z,50.12
2023-04-18T13:27:31.264Z,51.76
2023-04-18T13:29:58.323Z,50.95
2023-04-18T13:32:26.427Z,51.03
2023-04-18T13:34:53.237Z,51.53
2023-04-18T13:37:21.124Z,50.43
2023-04-18T13:39:48.918Z,51.63
2023-04-18T13:42:16.381Z,51.15
2023-04-18T13:44:43.142Z,51.35
2023-04-18T13:47:09.794Z,53.38
2023-04-18T13:49:37.651Z,52.79
2023-04-18T13:52:04.575Z,53.51
2023-04-18T13:54:32.472Z,53.17
2023-04-18T13:57:03.261Z,52.14
2023-04-18T13:59:31.983Z,52.48
2023-04-18T14:01:58.996Z,51.62
2023-04-18T14:04:26.157Z,53.39
2023-04-18T14:06:53.320Z,52.68
2023-04-18T14:09:19.977Z,51.16
2023-04-18T14:11:46.764Z,51.33
2023-04-18T14:14:13.989Z,53.63
2023-04-18T14:16:40.783Z,51.56
2023-04-18T14:19:07.638Z,52.82
2023-04-18T14:21:34.357Z,51.54
2023-04-18T14:24:01.159Z,49.77
2023-04-18T14:26:27.837Z,48.75
2023-04-18T14:28:54.442Z,48.75
2023-04-18T14:31:21.746Z,49.86
2023-04-18T14:33:48.709Z,49.41
2023-04-18T14:36:16.864Z,50.18
2023-04-18T14:38:48.184Z,52.41
2023-04-18T14:41:15.020Z,50.85
2023-04-18T14:43:41.622Z,49.78
2023-04-18T14:46:18.137Z,50.79
2023-04-18T14:48:46.547Z,49.57
2023-04-18T14:51:14.551Z,49.39
2023-04-18T14:53:41.503Z,49.53
2023-04-18T14:56:08.279Z,49.76
2023-04-18T14:58:34.898Z,49.72
2023-04-18T15:01:01.904Z,49.48
2023-04-18T15:03:28.875Z,49.96
2023-04-18T15:05:56.430Z,49.15
2023-04-18T15:08:23.072Z,49.57
2023-04-18T15:10:49.651Z,49.50
2023-04-18T15:13:16.282Z,49.94
2023-04-18T15:15:44.154Z,49.10
2023-04-18T15:18:11.286Z,49.53
2023-04-18T15:20:39.526Z,50.26
2023-04-18T15:23:07.179Z,49.90
2023-04-18T15:25:35.149Z,51.65
2023-04-18T15:28:01.822Z,49.99
2023-04-18T15:30:28.561Z,48.88
2023-04-18T15:32:55.743Z,49.46
2023-04-18T15:35:22.563Z,48.93
2023-04-18T15:37:49.302Z,49.40
2023-04-18T15:40:18.831Z,50.39
2023-04-18T15:42:45.804Z,50.67
2023-04-18T15:45:12.525Z,51.35
2023-04-18T15:47:39.251Z,51.24
2023-04-18T15:50:06.995Z,51.43
2023-04-18T15:52:33.924Z,51.94
2023-04-18T15:55:00.825Z,51.63
2023-04-18T15:57:29.706Z,52.85
2023-04-18T15:59:56.766Z,51.01
2023-04-18T16:02:23.495Z,51.21
2023-04-18T16:04:50.255Z,52.69
2023-04-18T16:07:16.996Z,51.34
2023-04-18T16:09:43.674Z,52.38
2023-04-18T16:12:10.311Z,51.48
2023-04-18T16:14:38.096Z,51.92
2023-04-18T16:17:04.776Z,50.30
2023-04-18T16:19:33.304Z,51.78
2023-04-18T16:22:01.220Z,50.79
2023-04-18T16:24:30.205Z,51.77
2023-04-18T16:26:56.953Z,51.58
2023-04-18T16:29:23.852Z,53.93
2023-04-18T16:31:51.798Z,52.75
2023-04-18T16:34:18.642Z,50.00
2023-04-18T16:36:45.225Z,51.33
2023-04-18T16:39:12.229Z,51.44
2023-04-18T16:41:38.948Z,51.24
2023-04-18T16:44:05.583Z,52.50
2023-04-18T16:46:32.539Z,53.28
2023-04-18T16:48:59.537Z,53.35
2023-04-18T16:51:26.943Z,53.51
2023-04-18T16:53:53.531Z,53.11
2023-04-18T16:56:20.246Z,52.82
2023-04-18T16:58:46.962Z,54.15
2023-04-18T17:01:13.576Z,54.82
2023-04-18T17:03:40.355Z,54.99
2023-04-18T17:06:07.124Z,55.45
2023-04-18T17:08:34.225Z,56.09
2023-04-18T17:11:02.330Z,58.68
2023-04-18T17:13:31.448Z,59.71
2023-04-18T17:15:58.628Z,57.57
2023-04-18T17:18:25.379Z,58.31
2023-04-18T17:20:52.246Z,58.10
2023-04-18T17:23:18.909Z,58.40
2023-04-18T17:25:46.300Z,57.95
2023-04-18T17:28:13.912Z,56.73
2023-04-18T17:30:43.761Z,56.81
2023-04-18T17:33:10.759Z,57.00
2023-04-18T17:35:39.916Z,55.24
2023-04-18T17:38:06.603Z,58.47
2023-04-18T17:40:33.334Z,57.55
2023-04-18T17:42:59.918Z,56.08
2023-04-18T17:45:26.598Z,57.09
2023-04-18T17:47:53.816Z,57.07
2023-04-18T17:50:20.632Z,57.12
2023-04-18T17:52:47.340Z,58.25
2023-04-18T17:55:14.008Z,58.25
2023-04-18T17:57:40.641Z,58.44
2023-04-18T18:00:11.114Z,57.42
2023-04-18T18:02:38.820Z,58.97
2023-04-18T18:05:05.857Z,59.32
2023-04-18T18:07:34.866Z,59.86
2023-04-18T18:10:02.498Z,60.74
2023-04-18T18:12:29.259Z,61.07
2023-04-18T18:14:57.325Z,62.57
2023-04-18T18:17:24.621Z,62.34
2023-04-18T18:19:51.243Z,64.15
2023-04-18T18:22:18.334Z,65.31
2023-04-18T18:24:45.570Z,66.89
2023-04-18T18:27:12.230Z,68.45
2023-04-18T18:29:38.793Z,71.10
2023-04-18T18:32:05.843Z,70.61
2023-04-18T18:34:32.419Z,70.64
2023-04-18T18:36:59.019Z,72.86
2023-04-18T18:39:25.660Z,71.64
2023-04-18T18:41:52.317Z,71.40
2023-04-18T18:44:19.026Z,70.92
2023-04-18T18:46:45.674Z,71.24
2023-04-18T18:49:12.481Z,73.82
2023-04-18T18:51:40.949Z,73.98
2023-04-18T18:54:07.655Z,75.85
2023-04-18T18:56:34.303Z,77.99
2023-04-18T18:59:00.889Z,80.26
2023-04-18T19:01:30.209Z,80.90
2023-04-18T19:03:56.934Z,79.90
2023-04-18T19:06:23.726Z,80.24
2023-04-18T19:08:50.365Z,81.93
2023-04-18T19:11:18.275Z,83.56
2023-04-18T19:13:45.702Z,84.28
2023-04-18T19:16:12.730Z,86.54
2023-04-18T19:18:40.673Z,87.56
2023-04-18T19:21:07.279Z,89.35
2023-04-18T19:23:34.055Z,92.30
2023-04-18T19:26:00.699Z,94.96
2023-04-18T19:28:27.729Z,97.70
2023-04-18T19:30:54.379Z,100.00
2023-04-18T19:33:21.353Z,100.00
2023-04-18T19:35:47.957Z,100.00
2023-04-18T19:38:14.549Z,100.00
2023-04-18T19:40:41.194Z,100.00
2023-04-18T19:43:07.802Z,100.00
2023-04-18T19:45:34.645Z,100.00
2023-04-18T19:48:01.328Z,100.00
2023-04-18T19:50:28.404Z,100.00
2023-04-18T19:52:55.014Z,100.00
2023-04-18T19:55:21.886Z,100.00
2023-04-18T19:57:48.603Z,100.00
2023-04-18T20:00:15.980Z,100.00
2023-04-18T20:02:43.010Z,100.00
2023-04-18T20:05:10.218Z,100.00
2023-04-18T20:07:37.174Z,100.00
2023-04-18T20:10:04.537Z,100.00
2023-04-18T20:12:31.478Z,100.00
2023-04-18T20:14:59.013Z,100.00
2023-04-18T20:17:26.199Z,100.00
2023-04-18T20:19:53.100Z,100.00
2023-04-18T20:22:19.896Z,100.00
2023-04-18T20:24:48.195Z,100.00
2023-04-18T20:27:15.339Z,100.00
2023-04-18T20:29:42.680Z,100.00
2023-04-18T20:32:11.618Z,100.00
2023-04-18T20:34:38.578Z,100.00
2023-04-18T20:37:09.276Z,100.00
2023-04-18T20:39:38.027Z,100.00
2023-04-18T20:42:04.934Z,100.00
2023-04-18T20:44:34.358Z,100.00
2023-04-18T20:47:01.187Z,100.00
2023-04-18T20:49:29.557Z,100.00
2023-04-18T20:51:56.318Z,100.00
2023-04-18T20:54:23.138Z,100.00
2023-04-18T20:56:49.738Z,100.00
2023-04-18T20:59:16.367Z,100.00
2023-04-18T21:01:43.040Z,100.00
2023-04-18T21:04:09.755Z,100.00
2023-04-18T21:06:36.766Z,100.00
2023-04-18T21:09:03.860Z,100.00
2023-04-18T21:11:30.683Z,100.00
2023-04-18T21:13:57.330Z,100.00
2023-04-18T21:16:24.336Z,100.00
2023-04-18T21:18:51.042Z,100.00
2023-04-18T21:21:17.959Z,100.00
2023-04-18T21:23:44.916Z,100.00
2023-04-18T21:26:13.649Z,100.00
2023-04-18T21:28:57.614Z,100.00
2023-04-18T21:31:26.155Z,100.00
2023-04-18T21:33:57.152Z,100.00
2023-04-18T21:36:26.513Z,100.00
2023-04-18T21:38:54.541Z,100.00
2023-04-18T21:41:21.564Z,100.00
2023-04-18T21:43:48.809Z,100.00
2023-04-18T21:46:16.151Z,100.00
2023-04-18T21:48:45.265Z,100.00
2023-04-18T21:51:14.071Z,100.00
2023-04-18T21:53:41.705Z,100.00
2023-04-18T21:56:09.118Z,100.00
2023-04-18T21:58:35.883Z,100.00
2023-04-18T22:01:02.776Z,100.00
2023-04-18T22:03:29.749Z,100.00
2023-04-18T22:05:56.702Z,100.00
2023-04-18T22:08:26.309Z,100.00
2023-04-18T22:10:57.762Z,100.00
2023-04-18T22:13:25.675Z,100.00
2023-04-18T22:15:52.271Z,100.00
2023-04-18T22:18:19.202Z,100.00
2023-04-18T22:20:46.962Z,100.00
2023-04-18T22:23:14.185Z,100.00
2023-04-18T22:25:40.983Z,100.00
2023-04-18T22:28:07.772Z,100.00
2023-04-18T22:30:34.776Z,100.00
2023-04-18T22:33:01.604Z,100.00
2023-04-18T22:35:28.449Z,100.00
2023-04-18T22:37:55.888Z,100.00
2023-04-18T22:40:22.580Z,100.00
2023-04-18T22:42:51.859Z,100.00
2023-04-18T22:45:19.456Z,100.00
2023-04-18T22:47:46.824Z,100.00
2023-04-18T22:50:14.292Z,100.00
2023-04-18T22:52:41.318Z,100.00
2023-04-18T22:55:08.644Z,100.00
2023-04-18T22:57:35.358Z,100.00
2023-04-18T23:00:02.107Z,100.00
2023-04-18T23:02:28.862Z,100.00
2023-04-18T23:04:58.436Z,100.00
2023-04-18T23:07:25.333Z,100.00
2023-04-18T23:09:51.939Z,100.00
2023-04-18T23:12:18.569Z,100.00
2023-04-18T23:14:45.332Z,100.00
2023-04-18T23:17:11.964Z,100.00
2023-04-18T23:19:38.971Z,100.00
2023-04-18T23:22:05.742Z,100.00
2023-04-18T23:24:32.374Z,100.00
2023-04-18T23:26:59.068Z,100.00
2023-04-18T23:29:25.663Z,100.00
2023-04-18T23:31:52.285Z,100.00
2023-04-18T23:34:18.895Z,100.00
2023-04-18T23:36:45.807Z,100.00
2023-04-18T23:39:12.467Z,100.00
2023-04-18T23:41:39.082Z,100.00
2023-04-18T23:44:05.779Z,100.00
2023-04-18T23:46:34.290Z,100.00
2023-04-18T23:49:02.368Z,100.00
2023-04-18T23:51:29.034Z,100.00
2023-04-18T23:53:55.631Z,100.00
2023-04-18T23:56:23.221Z,100.00
2023-04-18T23:58:50.623Z,100.00
